createdAt,value
2022-08-03T00:00:05.390Z,18.02
2022-08-03T00:00:55.356Z,17.99
2022-08-03T00:01:45.354Z,17.96
2022-08-03T00:02:35.390Z,17.94
2022-08-03T00:03:25.411Z,17.91
2022-08-03T00:04:15.324Z,17.89
2022-08-03T00:05:05.346Z,17.89
2022-08-03T00:06:04.851Z,17.84
2022-08-03T00:06:46.305Z,17.83
2022-08-03T00:07:35.287Z,17.80
2022-08-03T00:08:25.285Z,17.79
2022-08-03T00:09:15.286Z,17.76
2022-08-03T00:10:05.265Z,17.73
2022-08-03T00:10:55.255Z,17.74
2022-08-03T00:11:45.246Z,17.71
2022-08-03T00:12:35.254Z,17.66
2022-08-03T00:13:25.234Z,17.66
2022-08-03T00:14:15.216Z,17.63
2022-08-03T00:15:11.256Z,17.62
2022-08-03T00:15:56.200Z,17.60
2022-08-03T00:16:45.197Z,17.58
2022-08-03T00:17:52.122Z,17.60
2022-08-03T00:18:26.177Z,17.62
2022-08-03T00:19:15.183Z,17.62
2022-08-03T00:20:05.165Z,17.63
2022-08-03T00:20:55.146Z,17.66
2022-08-03T00:21:45.146Z,17.70
2022-08-03T00:22:35.127Z,17.71
2022-08-03T00:23:25.127Z,17.71
2022-08-03T00:24:15.157Z,17.71
2022-08-03T00:25:05.107Z,17.71
2022-08-03T00:25:55.104Z,17.70
2022-08-03T00:26:45.087Z,17.70
2022-08-03T00:27:35.084Z,17.68
2022-08-03T00:28:25.067Z,17.65
2022-08-03T00:29:15.076Z,17.66
2022-08-03T00:30:05.047Z,17.66
2022-08-03T00:30:55.046Z,17.63
2022-08-03T00:31:59.151Z,17.62
2022-08-03T00:32:36.027Z,17.60
2022-08-03T00:33:25.019Z,17.57
2022-08-03T00:34:15.029Z,17.55
2022-08-03T00:35:09.812Z,17.51
2022-08-03T00:35:55.995Z,17.47
2022-08-03T00:36:44.983Z,17.45
2022-08-03T00:37:40.909Z,17.42
2022-08-03T00:38:25.962Z,17.39
2022-08-03T00:39:14.976Z,17.36
2022-08-03T00:40:05.532Z,17.35
2022-08-03T00:40:54.937Z,17.30
2022-08-03T00:41:44.928Z,17.30
2022-08-03T00:42:34.926Z,17.27
2022-08-03T00:43:24.913Z,17.27
2022-08-03T00:44:14.906Z,17.27
2022-08-03T00:45:04.906Z,17.27
2022-08-03T00:45:54.895Z,17.28
2022-08-03T00:46:44.875Z,17.30
2022-08-03T00:47:34.896Z,17.32
2022-08-03T00:48:33.488Z,17.32
2022-08-03T00:49:15.919Z,17.33
2022-08-03T00:50:04.841Z,17.33
2022-08-03T00:50:54.835Z,17.35
2022-08-03T00:51:44.834Z,17.35
2022-08-03T00:52:34.815Z,17.33
2022-08-03T00:53:24.799Z,17.32
2022-08-03T00:54:14.796Z,17.30
2022-08-03T00:55:04.785Z,17.27
2022-08-03T00:55:54.779Z,17.22
2022-08-03T00:56:59.590Z,17.20
2022-08-03T00:57:35.765Z,17.18
2022-08-03T00:58:24.749Z,17.14
2022-08-03T00:59:14.743Z,17.10
2022-08-03T01:00:04.726Z,17.09
2022-08-03T01:00:54.760Z,17.09
2022-08-03T01:01:44.807Z,17.09
2022-08-03T01:02:34.707Z,17.10
2022-08-03T01:03:24.693Z,17.10
2022-08-03T01:04:14.685Z,17.09
2022-08-03T01:05:04.674Z,17.07
2022-08-03T01:05:54.673Z,17.09
2022-08-03T01:06:44.676Z,17.09
2022-08-03T01:07:34.655Z,17.07
2022-08-03T01:08:24.644Z,17.09
2022-08-03T01:09:14.633Z,17.07
2022-08-03T01:10:04.615Z,17.09
2022-08-03T01:10:54.625Z,17.10
2022-08-03T01:12:00.299Z,17.09
2022-08-03T01:12:35.612Z,17.09
2022-08-03T01:14:03.494Z,17.09
2022-08-03T01:14:18.426Z,17.07
2022-08-03T01:15:04.565Z,17.06
2022-08-03T01:15:54.593Z,17.06
2022-08-03T01:16:44.547Z,17.06
2022-08-03T01:17:34.565Z,17.07
2022-08-03T01:18:24.525Z,17.09
2022-08-03T01:19:14.525Z,17.06
2022-08-03T01:20:04.505Z,17.07
2022-08-03T01:20:54.504Z,17.09
2022-08-03T01:21:44.495Z,17.07
2022-08-03T01:22:34.485Z,17.06
2022-08-03T01:23:24.493Z,17.07
2022-08-03T01:24:14.467Z,17.06
2022-08-03T01:25:04.464Z,17.06
2022-08-03T01:25:54.729Z,17.05
2022-08-03T01:26:44.442Z,17.03
2022-08-03T01:27:34.465Z,17.00
2022-08-03T01:28:24.422Z,17.00
2022-08-03T01:29:14.415Z,16.99
2022-08-03T01:30:04.404Z,16.98
2022-08-03T01:30:54.404Z,16.95
2022-08-03T01:32:59.008Z,16.88
2022-08-03T01:32:59.082Z,16.82
2022-08-03T01:33:25.380Z,16.78
2022-08-03T01:34:14.634Z,16.72
2022-08-03T01:35:04.351Z,16.69
2022-08-03T01:35:54.362Z,16.66
2022-08-03T01:36:44.333Z,16.62
2022-08-03T01:37:34.324Z,16.62
2022-08-03T01:38:24.312Z,16.62
2022-08-03T01:39:14.303Z,16.62
2022-08-03T01:40:04.294Z,16.59
2022-08-03T01:40:54.304Z,16.55
2022-08-03T01:41:44.275Z,16.55
2022-08-03T01:42:34.272Z,16.50
2022-08-03T01:43:55.388Z,16.48
2022-08-03T01:44:29.302Z,16.48
2022-08-03T01:45:05.244Z,16.45
2022-08-03T01:45:54.254Z,16.47
2022-08-03T01:46:47.546Z,16.47
2022-08-03T01:47:34.212Z,16.47
2022-08-03T01:48:24.203Z,16.47
2022-08-03T01:49:14.227Z,16.47
2022-08-03T01:50:04.184Z,16.48
2022-08-03T01:50:54.175Z,16.48
2022-08-03T01:52:04.378Z,16.50
2022-08-03T01:52:35.161Z,16.51
2022-08-03T01:53:24.143Z,16.54
2022-08-03T01:54:14.142Z,16.55
2022-08-03T01:55:04.124Z,16.57
2022-08-03T01:55:54.120Z,16.59
2022-08-03T01:56:44.123Z,16.57
2022-08-03T01:57:34.102Z,16.55
2022-08-03T01:58:25.092Z,16.51
2022-08-03T01:59:14.084Z,16.51
2022-08-03T02:00:04.100Z,16.45
2022-08-03T02:00:54.106Z,16.42
2022-08-03T02:02:16.057Z,16.40
2022-08-03T02:02:35.217Z,16.33
2022-08-03T02:03:24.044Z,16.29
2022-08-03T02:04:14.044Z,16.27
2022-08-03T02:05:04.015Z,16.22
2022-08-03T02:06:11.496Z,16.22
2022-08-03T02:07:01.755Z,16.18
2022-08-03T02:07:34.992Z,16.18
2022-08-03T02:08:23.992Z,16.13
2022-08-03T02:09:13.973Z,16.14
2022-08-03T02:10:03.961Z,16.14
2022-08-03T02:10:53.961Z,16.16
2022-08-03T02:11:43.942Z,16.17
2022-08-03T02:12:33.953Z,16.18
2022-08-03T02:13:23.931Z,16.22
2022-08-03T02:14:13.913Z,16.22
2022-08-03T02:15:03.909Z,16.25
2022-08-03T02:15:53.912Z,16.26
2022-08-03T02:16:43.890Z,16.29
2022-08-03T02:17:38.674Z,16.29
2022-08-03T02:18:24.863Z,16.30
2022-08-03T02:19:13.861Z,16.30
2022-08-03T02:20:03.852Z,16.30
2022-08-03T02:20:54.032Z,16.29
2022-08-03T02:21:56.949Z,16.27
2022-08-03T02:22:34.830Z,16.26
2022-08-03T02:23:23.822Z,16.25
2022-08-03T02:24:13.811Z,16.23
2022-08-03T02:25:03.799Z,16.25
2022-08-03T02:25:53.793Z,16.26
2022-08-03T02:26:43.791Z,16.25
2022-08-03T02:27:33.772Z,16.26
2022-08-03T02:28:23.764Z,16.25
2022-08-03T02:29:13.760Z,16.25
2022-08-03T02:30:03.741Z,16.23
2022-08-03T02:30:53.940Z,16.22
2022-08-03T02:31:43.721Z,16.17
2022-08-03T02:32:33.721Z,16.13
2022-08-03T02:33:23.705Z,16.10
2022-08-03T02:34:13.699Z,16.10
2022-08-03T02:35:03.711Z,16.13
2022-08-03T02:35:53.680Z,16.13
2022-08-03T02:36:43.770Z,16.14
2022-08-03T02:37:33.662Z,16.14
2022-08-03T02:38:23.650Z,16.14
2022-08-03T02:39:13.643Z,16.16
2022-08-03T02:40:03.632Z,16.17
2022-08-03T02:40:53.641Z,16.18
2022-08-03T02:41:43.611Z,16.22
2022-08-03T02:42:33.609Z,16.18
2022-08-03T02:43:23.590Z,16.18
2022-08-03T02:44:13.597Z,16.13
2022-08-03T02:45:03.571Z,16.08
2022-08-03T02:45:53.581Z,16.06
2022-08-03T02:46:43.580Z,16.04
2022-08-03T02:47:53.350Z,16.01
2022-08-03T02:48:24.540Z,15.98
2022-08-03T02:49:40.830Z,15.93
2022-08-03T02:50:04.583Z,15.92
2022-08-03T02:50:53.510Z,15.89
2022-08-03T02:51:43.500Z,15.86
2022-08-03T02:52:33.510Z,15.85
2022-08-03T02:53:23.479Z,15.84
2022-08-03T02:54:13.480Z,15.84
2022-08-03T02:55:03.460Z,15.85
2022-08-03T02:55:53.459Z,15.85
2022-08-03T02:56:43.458Z,15.85
2022-08-03T02:57:33.440Z,15.86
2022-08-03T02:58:23.437Z,15.86
2022-08-03T02:59:13.420Z,15.89
2022-08-03T03:00:03.409Z,15.89
2022-08-03T03:00:53.458Z,15.89
2022-08-03T03:01:43.417Z,15.92
2022-08-03T03:02:33.389Z,15.91
2022-08-03T03:03:23.388Z,15.91
2022-08-03T03:04:13.368Z,15.89
2022-08-03T03:05:55.074Z,15.89
2022-08-03T03:05:57.522Z,15.89
2022-08-03T03:06:43.333Z,15.88
2022-08-03T03:07:33.960Z,15.85
2022-08-03T03:08:25.977Z,15.84
2022-08-03T03:09:13.327Z,15.76
2022-08-03T03:10:03.299Z,15.71
2022-08-03T03:10:55.502Z,15.68
2022-08-03T03:11:43.279Z,15.64
2022-08-03T03:12:33.278Z,15.64
2022-08-03T03:13:23.279Z,15.62
2022-08-03T03:14:13.259Z,15.60
2022-08-03T03:15:03.247Z,15.64
2022-08-03T03:15:53.254Z,15.60
2022-08-03T03:16:43.219Z,15.60
2022-08-03T03:17:33.227Z,15.60
2022-08-03T03:18:23.274Z,15.60
2022-08-03T03:19:13.218Z,15.60
2022-08-03T03:20:03.187Z,15.62
2022-08-03T03:20:53.211Z,15.62
2022-08-03T03:21:43.169Z,15.62
2022-08-03T03:22:33.169Z,15.66
2022-08-03T03:23:23.153Z,15.67
2022-08-03T03:24:13.147Z,15.67
2022-08-03T03:25:03.138Z,15.67
2022-08-03T03:25:53.150Z,15.73
2022-08-03T03:26:43.118Z,15.71
2022-08-03T03:27:33.108Z,15.70
2022-08-03T03:28:23.095Z,15.70
2022-08-03T03:29:13.088Z,15.67
2022-08-03T03:30:03.118Z,15.64
2022-08-03T03:30:53.541Z,15.66
2022-08-03T03:31:43.058Z,15.66
2022-08-03T03:32:33.056Z,15.64
2022-08-03T03:33:23.039Z,15.62
2022-08-03T03:34:13.035Z,15.62
2022-08-03T03:35:03.106Z,15.60
2022-08-03T03:35:53.035Z,15.60
2022-08-03T03:36:43.006Z,15.62
2022-08-03T03:37:32.998Z,15.60
2022-08-03T03:38:22.987Z,15.58
2022-08-03T03:39:15.382Z,15.56
2022-08-03T03:40:02.986Z,15.56
2022-08-03T03:40:52.990Z,15.56
2022-08-03T03:41:42.949Z,15.55
2022-08-03T03:42:32.947Z,15.56
2022-08-03T03:43:22.927Z,15.56
2022-08-03T03:44:12.927Z,15.56
2022-08-03T03:45:02.907Z,15.55
2022-08-03T03:45:52.907Z,15.55
2022-08-03T03:46:42.907Z,15.55
2022-08-03T03:47:33.122Z,15.55
2022-08-03T03:48:22.877Z,15.53
2022-08-03T03:49:12.925Z,15.55
2022-08-03T03:50:02.856Z,15.52
2022-08-03T03:50:52.867Z,15.53
2022-08-03T03:51:42.837Z,15.51
2022-08-03T03:52:32.837Z,15.51
2022-08-03T03:53:22.827Z,15.48
2022-08-03T03:54:12.846Z,15.48
2022-08-03T03:55:02.804Z,15.46
2022-08-03T03:56:02.208Z,15.43
2022-08-03T03:56:43.785Z,15.38
2022-08-03T03:57:32.777Z,15.34
2022-08-03T03:58:22.765Z,15.34
2022-08-03T03:59:12.756Z,15.33
2022-08-03T04:00:02.757Z,15.34
2022-08-03T04:00:52.774Z,15.34
2022-08-03T04:01:42.746Z,15.34
2022-08-03T04:02:32.717Z,15.35
2022-08-03T04:03:22.896Z,15.37
2022-08-03T04:04:12.698Z,15.37
2022-08-03T04:05:02.696Z,15.38
2022-08-03T04:05:52.683Z,15.41
2022-08-03T04:06:42.676Z,15.43
2022-08-03T04:07:32.666Z,15.44
2022-08-03T04:08:22.655Z,15.44
2022-08-03T04:09:12.664Z,15.46
2022-08-03T04:10:14.399Z,15.49
2022-08-03T04:10:53.644Z,15.48
2022-08-03T04:11:42.625Z,15.46
2022-08-03T04:12:32.612Z,15.43
2022-08-03T04:13:22.604Z,15.41
2022-08-03T04:14:12.588Z,15.40
2022-08-03T04:15:02.586Z,15.37
2022-08-03T04:15:52.588Z,15.37
2022-08-03T04:16:44.022Z,15.35
2022-08-03T04:17:32.554Z,15.35
2022-08-03T04:18:22.566Z,15.37
2022-08-03T04:19:12.546Z,15.38
2022-08-03T04:20:02.555Z,15.38
2022-08-03T04:20:52.522Z,15.40
2022-08-03T04:21:42.525Z,15.40
2022-08-03T04:22:32.516Z,15.40
2022-08-03T04:23:22.494Z,15.40
2022-08-03T04:24:12.475Z,15.43
2022-08-03T04:25:02.484Z,15.44
2022-08-03T04:25:52.463Z,15.44
2022-08-03T04:26:42.456Z,15.48
2022-08-03T04:27:32.455Z,15.49
2022-08-03T04:28:31.070Z,15.49
2022-08-03T04:29:13.429Z,15.49
2022-08-03T04:30:02.423Z,15.51
2022-08-03T04:30:52.405Z,15.49
2022-08-03T04:31:42.403Z,15.49
2022-08-03T04:32:32.415Z,15.48
2022-08-03T04:33:22.386Z,15.44
2022-08-03T04:34:12.373Z,15.43
2022-08-03T04:35:02.367Z,15.40
2022-08-03T04:36:01.105Z,15.37
2022-08-03T04:36:43.344Z,15.35
2022-08-03T04:37:32.333Z,15.31
2022-08-03T04:38:22.344Z,15.33
2022-08-03T04:39:12.316Z,15.31
2022-08-03T04:40:02.313Z,15.28
2022-08-03T04:40:52.294Z,15.31
2022-08-03T04:42:04.404Z,15.31
2022-08-03T04:42:33.274Z,15.31
2022-08-03T04:43:22.274Z,15.30
2022-08-03T04:44:12.261Z,15.30
2022-08-03T04:45:02.254Z,15.30
2022-08-03T04:45:52.244Z,15.30
2022-08-03T04:46:42.346Z,15.28
2022-08-03T04:47:33.235Z,15.28
2022-08-03T04:48:22.235Z,15.28
2022-08-03T04:49:12.261Z,15.27
2022-08-03T04:50:02.205Z,15.28
2022-08-03T04:50:52.203Z,15.31
2022-08-03T04:51:42.183Z,15.31
2022-08-03T04:52:32.168Z,15.33
2022-08-03T04:53:22.165Z,15.33
2022-08-03T04:54:12.164Z,15.33
2022-08-03T04:55:02.144Z,15.35
2022-08-03T04:55:52.132Z,15.38
2022-08-03T04:56:42.134Z,15.41
2022-08-03T04:57:32.123Z,15.41
2022-08-03T04:58:22.103Z,15.43
2022-08-03T04:59:12.091Z,15.46
2022-08-03T05:00:03.640Z,15.46
2022-08-03T05:00:52.089Z,15.49
2022-08-03T05:01:42.206Z,15.51
2022-08-03T05:02:32.173Z,15.52
2022-08-03T05:03:24.458Z,15.52
2022-08-03T05:04:12.054Z,15.53
2022-08-03T05:05:02.036Z,15.55
2022-08-03T05:05:52.035Z,15.53
2022-08-03T05:06:48.343Z,15.55
2022-08-03T05:07:36.377Z,15.56
2022-08-03T05:08:27.874Z,15.55
2022-08-03T05:09:13.002Z,15.56
2022-08-03T05:10:03.283Z,15.59
2022-08-03T05:10:51.983Z,15.62
2022-08-03T05:11:41.961Z,15.60
2022-08-03T05:12:33.224Z,15.64
2022-08-03T05:13:21.943Z,15.64
2022-08-03T05:14:11.930Z,15.67
2022-08-03T05:15:01.926Z,15.67
2022-08-03T05:15:51.903Z,15.67
2022-08-03T05:16:41.921Z,15.67
2022-08-03T05:17:31.892Z,15.68
2022-08-03T05:18:21.882Z,15.70
2022-08-03T05:19:11.873Z,15.70
2022-08-03T05:20:01.873Z,15.71
2022-08-03T05:20:51.854Z,15.73
2022-08-03T05:21:52.332Z,15.76
2022-08-03T05:22:32.843Z,15.77
2022-08-03T05:23:21.832Z,15.77
2022-08-03T05:24:11.813Z,15.77
2022-08-03T05:25:01.812Z,15.76
2022-08-03T05:25:51.801Z,15.74
2022-08-03T05:26:41.822Z,15.73
2022-08-03T05:27:31.782Z,15.68
2022-08-03T05:28:21.774Z,15.68
2022-08-03T05:29:11.764Z,15.68
2022-08-03T05:30:29.673Z,15.67
2022-08-03T05:30:52.741Z,15.67
2022-08-03T05:31:41.743Z,15.70
2022-08-03T05:32:31.751Z,15.71
2022-08-03T05:33:21.721Z,15.74
2022-08-03T05:34:11.702Z,15.77
2022-08-03T05:35:56.195Z,15.78
2022-08-03T05:35:57.443Z,15.81
2022-08-03T05:36:42.683Z,15.85
2022-08-03T05:37:31.670Z,15.86
2022-08-03T05:38:27.987Z,15.88
2022-08-03T05:39:12.652Z,15.91
2022-08-03T05:40:01.652Z,15.92
2022-08-03T05:40:57.585Z,15.93
2022-08-03T05:41:42.629Z,15.96
2022-08-03T05:42:31.622Z,15.98
2022-08-03T05:43:21.611Z,15.99
2022-08-03T05:44:11.592Z,15.99
2022-08-03T05:45:01.594Z,16.01
2022-08-03T05:46:11.687Z,16.01
2022-08-03T05:46:42.572Z,16.04
2022-08-03T05:47:31.563Z,16.06
2022-08-03T05:48:21.554Z,16.07
2022-08-03T05:49:11.599Z,16.07
2022-08-03T05:50:01.543Z,16.10
2022-08-03T05:50:51.523Z,16.11
2022-08-03T05:51:41.542Z,16.13
2022-08-03T05:52:31.506Z,16.16
2022-08-03T05:53:21.502Z,16.16
2022-08-03T05:54:11.501Z,16.17
2022-08-03T05:55:01.481Z,16.18
2022-08-03T05:55:56.150Z,16.18
2022-08-03T05:56:42.469Z,16.23
2022-08-03T05:57:31.470Z,16.23
2022-08-03T05:58:21.451Z,16.23
2022-08-03T05:59:35.733Z,16.25
2022-08-03T06:00:02.441Z,16.27
2022-08-03T06:00:51.411Z,16.29
2022-08-03T06:01:41.448Z,16.33
2022-08-03T06:02:31.400Z,16.34
2022-08-03T06:03:21.390Z,16.36
2022-08-03T06:04:11.380Z,16.37
2022-08-03T06:05:01.396Z,16.42
2022-08-03T06:05:59.952Z,16.42
2022-08-03T06:06:42.360Z,16.47
2022-08-03T06:07:31.341Z,16.47
2022-08-03T06:08:21.350Z,16.48
2022-08-03T06:09:11.321Z,16.52
2022-08-03T06:10:36.292Z,16.52
2022-08-03T06:10:52.321Z,16.54
2022-08-03T06:11:41.301Z,16.55
2022-08-03T06:12:31.291Z,16.55
2022-08-03T06:13:21.308Z,16.59
2022-08-03T06:14:11.282Z,16.60
2022-08-03T06:15:01.270Z,16.60
2022-08-03T06:15:51.250Z,16.60
2022-08-03T06:16:41.251Z,16.63
2022-08-03T06:17:37.181Z,16.65
2022-08-03T06:18:22.260Z,16.67
2022-08-03T06:19:11.230Z,16.69
2022-08-03T06:20:01.213Z,16.72
2022-08-03T06:20:51.211Z,16.73
2022-08-03T06:21:41.198Z,16.77
2022-08-03T06:22:31.182Z,16.78
2022-08-03T06:23:21.181Z,16.80
2022-08-03T06:24:11.161Z,16.82
2022-08-03T06:25:03.491Z,16.85
2022-08-03T06:25:51.148Z,16.88
2022-08-03T06:26:41.160Z,16.91
2022-08-03T06:27:37.189Z,16.95
2022-08-03T06:28:52.733Z,16.99
2022-08-03T06:29:12.111Z,17.00
2022-08-03T06:30:01.110Z,17.05
2022-08-03T06:30:51.090Z,17.07
2022-08-03T06:31:41.101Z,17.09
2022-08-03T06:32:31.074Z,17.12
2022-08-03T06:33:21.070Z,17.15
2022-08-03T06:34:32.505Z,17.18
2022-08-03T06:35:02.050Z,17.20
2022-08-03T06:35:51.040Z,17.21
2022-08-03T06:36:41.050Z,17.27
2022-08-03T06:37:31.020Z,17.30
2022-08-03T06:38:21.019Z,17.32
2022-08-03T06:39:11.017Z,17.36
2022-08-03T06:40:01.049Z,17.39
2022-08-03T06:40:50.990Z,17.43
2022-08-03T06:41:44.756Z,17.46
2022-08-03T06:42:30.991Z,17.49
2022-08-03T06:43:20.968Z,17.53
2022-08-03T06:44:10.974Z,17.58
2022-08-03T06:45:00.962Z,17.66
2022-08-03T06:45:50.938Z,17.71
2022-08-03T06:46:40.937Z,17.79
2022-08-03T06:47:30.921Z,17.87
2022-08-03T06:48:20.922Z,17.94
2022-08-03T06:49:10.992Z,18.04
2022-08-03T06:50:12.695Z,18.14
2022-08-03T06:50:51.890Z,18.21
2022-08-03T06:52:05.740Z,18.29
2022-08-03T06:52:38.059Z,18.35
2022-08-03T06:53:21.867Z,18.39
2022-08-03T06:54:10.850Z,18.42
2022-08-03T06:55:00.859Z,18.49
2022-08-03T06:55:54.411Z,18.54
2022-08-03T06:56:40.849Z,18.60
2022-08-03T06:57:30.820Z,18.66
2022-08-03T06:58:20.821Z,18.74
2022-08-03T07:00:08.022Z,18.76
2022-08-03T07:00:08.708Z,18.84
2022-08-03T07:00:51.799Z,18.87
2022-08-03T07:01:40.830Z,18.93
2022-08-03T07:02:30.790Z,18.99
2022-08-03T07:03:20.865Z,19.09
2022-08-03T07:04:10.757Z,19.16
2022-08-03T07:05:00.750Z,19.24
2022-08-03T07:05:50.749Z,19.28
2022-08-03T07:06:40.760Z,19.35
2022-08-03T07:07:30.720Z,19.45
2022-08-03T07:08:33.800Z,19.52
2022-08-03T07:09:11.706Z,19.57
2022-08-03T07:10:00.699Z,19.65
2022-08-03T07:10:50.691Z,19.78
2022-08-03T07:11:40.689Z,19.86
2022-08-03T07:12:30.684Z,19.95
2022-08-03T07:13:20.670Z,20.00
2022-08-03T07:14:10.700Z,20.08
2022-08-03T07:15:02.138Z,20.19
2022-08-03T07:15:55.403Z,20.26
2022-08-03T07:16:41.630Z,20.34
2022-08-03T07:17:30.632Z,20.41
2022-08-03T07:18:27.573Z,20.42
2022-08-03T07:19:11.598Z,20.51
2022-08-03T07:20:00.600Z,20.57
2022-08-03T07:20:50.580Z,20.61
2022-08-03T07:21:40.579Z,20.68
2022-08-03T07:22:30.580Z,20.75
2022-08-03T07:23:20.559Z,20.79
2022-08-03T07:24:10.547Z,20.85
2022-08-03T07:25:00.539Z,20.97
2022-08-03T07:25:50.527Z,21.09
2022-08-03T07:26:40.539Z,21.16
2022-08-03T07:27:30.548Z,21.26
2022-08-03T07:28:20.511Z,21.34
2022-08-03T07:29:14.819Z,21.42
2022-08-03T07:30:01.600Z,21.46
2022-08-03T07:30:50.470Z,21.52
2022-08-03T07:31:40.459Z,21.58
2022-08-03T07:32:30.469Z,21.64
2022-08-03T07:33:20.458Z,21.74
2022-08-03T07:34:10.449Z,21.79
2022-08-03T07:35:01.426Z,21.82
2022-08-03T07:35:50.420Z,21.89
2022-08-03T07:36:40.409Z,21.96
2022-08-03T07:37:30.400Z,22.01
2022-08-03T07:38:21.169Z,22.06
2022-08-03T07:39:17.455Z,22.08
2022-08-03T07:40:01.369Z,22.12
2022-08-03T07:40:50.359Z,22.15
2022-08-03T07:41:41.375Z,22.21
2022-08-03T07:42:30.340Z,22.26
2022-08-03T07:43:20.333Z,22.31
2022-08-03T07:44:10.322Z,22.41
2022-08-03T07:45:00.344Z,22.48
2022-08-03T07:45:50.301Z,22.60
2022-08-03T07:46:40.298Z,22.69
2022-08-03T07:47:35.571Z,22.74
2022-08-03T07:48:21.302Z,22.75
2022-08-03T07:49:10.322Z,22.78
2022-08-03T07:50:00.262Z,22.85
2022-08-03T07:50:50.259Z,22.89
2022-08-03T07:51:40.232Z,22.97
2022-08-03T07:52:30.231Z,23.01
2022-08-03T07:53:20.219Z,23.09
2022-08-03T07:54:10.254Z,23.15
2022-08-03T07:55:00.189Z,23.22
2022-08-03T07:55:50.211Z,23.29
2022-08-03T07:56:40.177Z,23.38
2022-08-03T07:57:30.170Z,23.42
2022-08-03T07:58:23.989Z,23.47
2022-08-03T07:59:10.170Z,23.50
2022-08-03T08:00:02.151Z,23.56
2022-08-03T08:00:50.165Z,23.60
2022-08-03T08:01:40.154Z,23.69
2022-08-03T08:02:30.137Z,23.71
2022-08-03T08:03:20.109Z,23.79
2022-08-03T08:04:10.100Z,23.89
2022-08-03T08:05:05.309Z,23.96
2022-08-03T08:05:51.070Z,24.00
2022-08-03T08:06:40.050Z,24.06
2022-08-03T08:07:30.059Z,24.12
2022-08-03T08:08:20.030Z,24.14
2022-08-03T08:09:10.029Z,24.19
2022-08-03T08:10:00.012Z,24.27
2022-08-03T08:10:58.405Z,24.33
2022-08-03T08:11:41.009Z,24.41
2022-08-03T08:12:29.988Z,24.46
2022-08-03T08:13:19.971Z,24.53
2022-08-03T08:14:09.967Z,24.59
2022-08-03T08:14:59.950Z,24.66
2022-08-03T08:15:49.979Z,24.77
2022-08-03T08:16:39.931Z,24.87
2022-08-03T08:17:29.930Z,24.99
2022-08-03T08:18:19.921Z,25.08
2022-08-03T08:19:10.011Z,25.12
2022-08-03T08:19:59.890Z,25.14
2022-08-03T08:20:49.880Z,25.19
2022-08-03T08:21:53.057Z,25.22
2022-08-03T08:22:31.492Z,25.24
2022-08-03T08:23:42.200Z,25.30
2022-08-03T08:24:11.069Z,25.34
2022-08-03T08:25:01.039Z,25.42
2022-08-03T08:25:49.842Z,25.45
2022-08-03T08:26:39.809Z,25.51
2022-08-03T08:28:29.234Z,25.59
2022-08-03T08:28:29.786Z,25.56
2022-08-03T08:29:10.782Z,25.61
2022-08-03T08:30:07.255Z,25.64
2022-08-03T08:30:50.790Z,25.71
2022-08-03T08:31:39.751Z,25.75
2022-08-03T08:32:29.751Z,25.82
2022-08-03T08:33:23.409Z,25.91
2022-08-03T08:34:09.731Z,26.00
2022-08-03T08:34:59.718Z,26.06
2022-08-03T08:35:49.712Z,26.09
2022-08-03T08:36:39.712Z,26.12
2022-08-03T08:37:29.691Z,26.13
2022-08-03T08:38:19.690Z,26.09
2022-08-03T08:39:09.691Z,26.12
2022-08-03T08:39:59.659Z,26.17
2022-08-03T08:40:49.664Z,26.27
2022-08-03T08:41:39.653Z,26.31
2022-08-03T08:42:30.639Z,26.35
2022-08-03T08:43:19.631Z,26.35
2022-08-03T08:44:09.621Z,26.39
2022-08-03T08:44:59.619Z,26.41
2022-08-03T08:45:49.599Z,26.42
2022-08-03T08:46:39.582Z,26.46
2022-08-03T08:47:29.580Z,26.53
2022-08-03T08:48:20.597Z,26.60
2022-08-03T08:49:09.616Z,26.68
2022-08-03T08:50:09.753Z,26.76
2022-08-03T08:50:50.543Z,26.83
2022-08-03T08:51:50.999Z,26.96
2022-08-03T08:52:32.154Z,27.08
2022-08-03T08:53:22.776Z,27.23
2022-08-03T08:54:10.511Z,27.28
2022-08-03T08:55:00.176Z,27.30
2022-08-03T08:55:58.611Z,27.30
2022-08-03T08:56:40.493Z,27.31
2022-08-03T08:57:42.426Z,27.33
2022-08-03T08:58:21.055Z,27.34
2022-08-03T08:59:09.454Z,27.28
2022-08-03T08:59:59.441Z,27.28
2022-08-03T09:00:49.486Z,27.38
2022-08-03T09:01:39.423Z,27.43
2022-08-03T09:02:29.461Z,27.46
2022-08-03T09:03:22.720Z,27.50
2022-08-03T09:04:10.401Z,27.59
2022-08-03T09:05:01.930Z,27.63
2022-08-03T09:05:55.715Z,27.68
2022-08-03T09:06:50.198Z,27.71
2022-08-03T09:07:30.587Z,27.77
2022-08-03T09:08:19.352Z,27.80
2022-08-03T09:09:09.342Z,27.81
2022-08-03T09:10:11.549Z,27.81
2022-08-03T09:10:50.344Z,27.87
2022-08-03T09:12:00.455Z,27.90
2022-08-03T09:12:41.443Z,27.93
2022-08-03T09:13:20.294Z,27.95
2022-08-03T09:14:09.283Z,27.96
2022-08-03T09:15:15.840Z,27.99
2022-08-03T09:15:52.777Z,27.99
2022-08-03T09:16:40.253Z,28.01
2022-08-03T09:17:29.251Z,28.01
2022-08-03T09:18:19.243Z,28.02
2022-08-03T09:19:09.244Z,28.02
2022-08-03T09:20:03.631Z,28.08
2022-08-03T09:20:49.222Z,28.06
2022-08-03T09:21:39.203Z,28.11
2022-08-03T09:22:29.194Z,28.14
2022-08-03T09:23:59.091Z,28.18
2022-08-03T09:24:20.606Z,28.23
2022-08-03T09:25:22.804Z,28.27
2022-08-03T09:25:50.178Z,28.35
2022-08-03T09:26:39.164Z,28.40
2022-08-03T09:27:29.144Z,28.45
2022-08-03T09:28:52.881Z,28.50
2022-08-03T09:29:14.375Z,28.55
2022-08-03T09:30:00.148Z,28.60
2022-08-03T09:30:49.112Z,28.64
2022-08-03T09:31:39.114Z,28.67
2022-08-03T09:32:29.093Z,28.70
2022-08-03T09:33:19.076Z,28.70
2022-08-03T09:34:09.075Z,28.73
2022-08-03T09:34:59.055Z,28.74
2022-08-03T09:35:54.186Z,28.74
2022-08-03T09:36:40.055Z,28.76
2022-08-03T09:38:08.569Z,28.79
2022-08-03T09:38:20.024Z,28.83
2022-08-03T09:39:09.016Z,28.88
2022-08-03T09:39:59.025Z,28.92
2022-08-03T09:40:49.004Z,28.94
2022-08-03T09:41:38.986Z,28.98
2022-08-03T09:42:28.995Z,29.02
2022-08-03T09:43:18.967Z,29.08
2022-08-03T09:44:08.975Z,29.14
2022-08-03T09:44:59.953Z,29.14
2022-08-03T09:45:48.946Z,29.21
2022-08-03T09:46:38.946Z,29.23
2022-08-03T09:47:28.927Z,29.27
2022-08-03T09:48:18.916Z,29.32
2022-08-03T09:49:11.938Z,29.36
2022-08-03T09:49:59.074Z,29.42
2022-08-03T09:50:57.020Z,29.49
2022-08-03T09:52:32.613Z,29.55
2022-08-03T09:52:38.134Z,29.58
2022-08-03T09:53:19.867Z,29.60
2022-08-03T09:54:16.350Z,29.63
2022-08-03T09:54:59.866Z,29.67
2022-08-03T09:56:33.620Z,29.70
2022-08-03T09:56:39.835Z,29.74
2022-08-03T09:57:28.827Z,29.81
2022-08-03T09:58:18.817Z,29.85
2022-08-03T09:59:08.829Z,29.89
2022-08-03T10:00:04.427Z,29.94
2022-08-03T10:00:49.818Z,30.00
2022-08-03T10:01:38.825Z,30.04
2022-08-03T10:02:28.778Z,30.08
2022-08-03T10:03:18.798Z,30.11
2022-08-03T10:04:08.758Z,30.15
2022-08-03T10:04:58.746Z,30.19
2022-08-03T10:05:48.778Z,30.19
2022-08-03T10:06:38.748Z,30.18
2022-08-03T10:07:28.719Z,30.19
2022-08-03T10:08:18.707Z,30.19
2022-08-03T10:09:08.708Z,30.21
2022-08-03T10:09:58.688Z,30.22
2022-08-03T10:10:49.689Z,30.22
2022-08-03T10:11:41.672Z,30.15
2022-08-03T10:12:28.699Z,30.08
2022-08-03T10:13:18.658Z,30.06
2022-08-03T10:14:08.649Z,30.08
2022-08-03T10:14:58.646Z,30.13
2022-08-03T10:16:22.592Z,30.15
2022-08-03T10:16:39.638Z,30.21
2022-08-03T10:17:28.622Z,30.28
2022-08-03T10:18:18.617Z,30.30
2022-08-03T10:19:08.598Z,30.34
2022-08-03T10:19:58.591Z,30.37
2022-08-03T10:20:48.587Z,30.40
2022-08-03T10:21:38.581Z,30.40
2022-08-03T10:22:28.569Z,30.42
2022-08-03T10:23:18.574Z,30.40
2022-08-03T10:24:08.550Z,30.42
2022-08-03T10:24:58.559Z,30.40
2022-08-03T10:25:48.531Z,30.45
2022-08-03T10:26:38.510Z,30.48
2022-08-03T10:27:28.512Z,30.51
2022-08-03T10:28:18.499Z,30.53
2022-08-03T10:29:12.869Z,30.49
2022-08-03T10:29:58.481Z,30.48
2022-08-03T10:30:48.511Z,30.48
2022-08-03T10:31:38.461Z,30.46
2022-08-03T10:32:29.460Z,30.42
2022-08-03T10:33:51.887Z,30.45
2022-08-03T10:34:09.431Z,30.46
2022-08-03T10:35:00.152Z,30.48
2022-08-03T10:35:48.433Z,30.53
2022-08-03T10:36:38.402Z,30.59
2022-08-03T10:37:28.401Z,30.61
2022-08-03T10:38:18.382Z,30.63
2022-08-03T10:39:16.375Z,30.64
2022-08-03T10:39:59.361Z,30.68
2022-08-03T10:40:50.403Z,30.72
2022-08-03T10:41:38.351Z,30.76
2022-08-03T10:42:28.363Z,30.82
2022-08-03T10:43:18.331Z,30.83